sensor_id;sensor_type;location;lat;lon;timestamp;P1;durP1;ratioP1;P2;durP2;ratioP2
21095;SDS011;10706;49.036;12.112;2022-11-20T00:01:06;38.13;;;15.53;;
21095;SDS011;10706;49.036;12.112;2022-11-20T00:03:40;40.10;;;15.93;;
21095;SDS011;10706;49.036;12.112;2022-11-20T00:06:07;34.77;;;15.80;;
21095;SDS011;10706;49.036;12.112;2022-11-20T00:08:36;37.33;;;15.60;;
21095;SDS011;10706;49.036;12.112;2022-11-20T00:11:05;38.60;;;16.07;;
21095;SDS011;10706;49.036;12.112;2022-11-20T00:13:37;36.43;;;14.37;;
21095;SDS011;10706;49.036;12.112;2022-11-20T00:16:05;38.33;;;14.77;;
21095;SDS011;10706;49.036;12.112;2022-11-20T00:18:32;41.37;;;16.27;;
21095;SDS011;10706;49.036;12.112;2022-11-20T00:21:15;38.03;;;15.53;;
21095;SDS011;10706;49.036;12.112;2022-11-20T00:23:43;38.87;;;15.07;;
21095;SDS011;10706;49.036;12.112;2022-11-20T00:26:10;40.33;;;15.73;;
21095;SDS011;10706;49.036;12.112;2022-11-20T00:28:39;41.97;;;16.07;;
21095;SDS011;10706;49.036;12.112;2022-11-20T00:31:09;35.60;;;14.70;;
21095;SDS011;10706;49.036;12.112;2022-11-20T00:33:38;40.50;;;16.30;;
21095;SDS011;10706;49.036;12.112;2022-11-20T00:36:08;39.87;;;14.57;;
21095;SDS011;10706;49.036;12.112;2022-11-20T00:38:40;39.27;;;15.70;;
21095;SDS011;10706;49.036;12.112;2022-11-20T00:41:07;39.83;;;15.77;;
21095;SDS011;10706;49.036;12.112;2022-11-20T00:43:36;40.30;;;15.60;;
21095;SDS011;10706;49.036;12.112;2022-11-20T00:46:07;35.97;;;15.07;;
21095;SDS011;10706;49.036;12.112;2022-11-20T00:48:42;44.40;;;16.70;;
21095;SDS011;10706;49.036;12.112;2022-11-20T00:51:09;41.93;;;16.00;;
21095;SDS011;10706;49.036;12.112;2022-11-20T00:53:38;38.20;;;14.20;;
21095;SDS011;10706;49.036;12.112;2022-11-20T00:56:05;36.97;;;15.33;;
21095;SDS011;10706;49.036;12.112;2022-11-20T00:58:37;39.80;;;16.03;;
21095;SDS011;10706;49.036;12.112;2022-11-20T01:01:06;36.90;;;15.00;;
21095;SDS011;10706;49.036;12.112;2022-11-20T01:03:35;37.10;;;14.77;;
21095;SDS011;10706;49.036;12.112;2022-11-20T01:06:10;37.07;;;14.53;;
21095;SDS011;10706;49.036;12.112;2022-11-20T01:08:39;35.77;;;15.50;;
21095;SDS011;10706;49.036;12.112;2022-11-20T01:11:15;36.37;;;14.77;;
21095;SDS011;10706;49.036;12.112;2022-11-20T01:13:47;37.80;;;14.23;;
21095;SDS011;10706;49.036;12.112;2022-11-20T01:16:20;36.90;;;15.43;;
21095;SDS011;10706;49.036;12.112;2022-11-20T01:18:52;34.63;;;13.83;;
21095;SDS011;10706;49.036;12.112;2022-11-20T01:21:23;43.53;;;15.60;;
21095;SDS011;10706;49.036;12.112;2022-11-20T01:23:57;41.40;;;15.93;;
21095;SDS011;10706;49.036;12.112;2022-11-20T01:26:26;37.43;;;15.47;;
21095;SDS011;10706;49.036;12.112;2022-11-20T01:28:54;36.40;;;15.57;;
21095;SDS011;10706;49.036;12.112;2022-11-20T01:31:22;36.50;;;14.70;;
21095;SDS011;10706;49.036;12.112;2022-11-20T01:34:04;37.47;;;15.70;;
21095;SDS011;10706;49.036;12.112;2022-11-20T01:36:34;35.40;;;14.80;;
21095;SDS011;10706;49.036;12.112;2022-11-20T01:39:03;36.53;;;14.13;;
21095;SDS011;10706;49.036;12.112;2022-11-20T01:41:36;40.53;;;15.37;;
21095;SDS011;10706;49.036;12.112;2022-11-20T01:44:22;36.43;;;16.37;;
21095;SDS011;10706;49.036;12.112;2022-11-20T01:50:23;34.33;;;14.13;;
21095;SDS011;10706;49.036;12.112;2022-11-20T01:53:00;35.17;;;13.90;;
21095;SDS011;10706;49.036;12.112;2022-11-20T01:55:38;38.57;;;14.70;;
21095;SDS011;10706;49.036;12.112;2022-11-20T01:58:09;37.03;;;14.67;;
21095;SDS011;10706;49.036;12.112;2022-11-20T02:00:36;39.13;;;15.47;;
21095;SDS011;10706;49.036;12.112;2022-11-20T02:03:08;34.37;;;14.20;;
21095;SDS011;10706;49.036;12.112;2022-11-20T02:05:41;40.20;;;14.83;;
21095;SDS011;10706;49.036;12.112;2022-11-20T02:09:02;32.60;;;13.73;;
21095;SDS011;10706;49.036;12.112;2022-11-20T02:11:29;35.93;;;13.00;;
21095;SDS011;10706;49.036;12.112;2022-11-20T02:13:56;35.97;;;14.57;;
21095;SDS011;10706;49.036;12.112;2022-11-20T02:16:23;34.63;;;13.43;;
21095;SDS011;10706;49.036;12.112;2022-11-20T02:18:55;33.27;;;14.43;;
21095;SDS011;10706;49.036;12.112;2022-11-20T02:21:30;38.43;;;14.77;;
21095;SDS011;10706;49.036;12.112;2022-11-20T02:24:11;35.93;;;14.63;;
21095;SDS011;10706;49.036;12.112;2022-11-20T02:32:22;36.23;;;14.77;;
21095;SDS011;10706;49.036;12.112;2022-11-20T02:34:57;41.57;;;15.43;;
21095;SDS011;10706;49.036;12.112;2022-11-20T02:37:32;31.97;;;13.40;;
21095;SDS011;10706;49.036;12.112;2022-11-20T02:40:02;36.30;;;14.30;;
21095;SDS011;10706;49.036;12.112;2022-11-20T02:42:28;42.30;;;16.33;;
21095;SDS011;10706;49.036;12.112;2022-11-20T02:44:54;37.77;;;15.03;;
21095;SDS011;10706;49.036;12.112;2022-11-20T02:47:20;39.90;;;16.50;;
21095;SDS011;10706;49.036;12.112;2022-11-20T02:49:45;35.77;;;14.43;;
21095;SDS011;10706;49.036;12.112;2022-11-20T02:52:11;35.40;;;14.77;;
21095;SDS011;10706;49.036;12.112;2022-11-20T02:54:37;39.23;;;15.20;;
21095;SDS011;10706;49.036;12.112;2022-11-20T02:57:03;36.50;;;14.20;;
21095;SDS011;10706;49.036;12.112;2022-11-20T02:59:28;33.73;;;14.50;;
21095;SDS011;10706;49.036;12.112;2022-11-20T03:01:54;32.93;;;14.07;;
21095;SDS011;10706;49.036;12.112;2022-11-20T03:04:20;35.03;;;13.33;;
21095;SDS011;10706;49.036;12.112;2022-11-20T03:06:45;33.07;;;12.50;;
21095;SDS011;10706;49.036;12.112;2022-11-20T03:09:11;32.00;;;11.90;;
21095;SDS011;10706;49.036;12.112;2022-11-20T03:11:37;34.57;;;13.93;;
21095;SDS011;10706;49.036;12.112;2022-11-20T03:14:04;39.80;;;15.07;;
21095;SDS011;10706;49.036;12.112;2022-11-20T03:16:30;37.00;;;14.57;;
21095;SDS011;10706;49.036;12.112;2022-11-20T03:18:57;36.30;;;15.00;;
21095;SDS011;10706;49.036;12.112;2022-11-20T03:21:23;36.23;;;14.40;;
21095;SDS011;10706;49.036;12.112;2022-11-20T03:23:49;35.37;;;13.80;;
21095;SDS011;10706;49.036;12.112;2022-11-20T03:26:16;34.73;;;14.10;;
21095;SDS011;10706;49.036;12.112;2022-11-20T03:28:49;32.13;;;13.27;;
21095;SDS011;10706;49.036;12.112;2022-11-20T03:31:27;35.53;;;13.83;;
21095;SDS011;10706;49.036;12.112;2022-11-20T03:34:02;37.13;;;14.77;;
21095;SDS011;10706;49.036;12.112;2022-11-20T03:36:29;41.03;;;15.00;;
21095;SDS011;10706;49.036;12.112;2022-11-20T03:38:56;37.37;;;13.93;;
21095;SDS011;10706;49.036;12.112;2022-11-20T03:41:25;34.37;;;12.97;;
21095;SDS011;10706;49.036;12.112;2022-11-20T03:43:55;36.37;;;14.50;;
21095;SDS011;10706;49.036;12.112;2022-11-20T03:46:27;34.93;;;14.53;;
21095;SDS011;10706;49.036;12.112;2022-11-20T03:48:53;36.37;;;14.13;;
21095;SDS011;10706;49.036;12.112;2022-11-20T03:51:21;31.63;;;13.67;;
21095;SDS011;10706;49.036;12.112;2022-11-20T03:53:53;35.53;;;15.27;;
21095;SDS011;10706;49.036;12.112;2022-11-20T03:56:28;38.40;;;14.47;;
21095;SDS011;10706;49.036;12.112;2022-11-20T03:58:57;36.40;;;14.33;;
21095;SDS011;10706;49.036;12.112;2022-11-20T04:01:24;33.63;;;13.30;;
21095;SDS011;10706;49.036;12.112;2022-11-20T04:03:53;35.67;;;14.07;;
21095;SDS011;10706;49.036;12.112;2022-11-20T04:06:21;34.87;;;14.20;;
21095;SDS011;10706;49.036;12.112;2022-11-20T04:08:54;37.83;;;13.77;;
21095;SDS011;10706;49.036;12.112;2022-11-20T04:11:22;38.77;;;16.27;;
21095;SDS011;10706;49.036;12.112;2022-11-20T04:13:54;37.53;;;14.93;;
21095;SDS011;10706;49.036;12.112;2022-11-20T04:16:23;36.30;;;13.83;;
21095;SDS011;10706;49.036;12.112;2022-11-20T04:18:51;34.83;;;14.33;;
21095;SDS011;10706;49.036;12.112;2022-11-20T04:21:18;34.13;;;14.10;;
21095;SDS011;10706;49.036;12.112;2022-11-20T04:23:45;35.67;;;13.60;;
21095;SDS011;10706;49.036;12.112;2022-11-20T04:26:11;34.97;;;13.77;;
21095;SDS011;10706;49.036;12.112;2022-11-20T04:28:37;34.70;;;15.30;;
21095;SDS011;10706;49.036;12.112;2022-11-20T04:31:08;36.13;;;14.23;;
21095;SDS011;10706;49.036;12.112;2022-11-20T04:33:37;34.80;;;13.40;;
21095;SDS011;10706;49.036;12.112;2022-11-20T04:36:09;38.30;;;14.97;;
21095;SDS011;10706;49.036;12.112;2022-11-20T04:38:41;32.47;;;13.07;;
21095;SDS011;10706;49.036;12.112;2022-11-20T04:41:08;35.63;;;13.87;;
21095;SDS011;10706;49.036;12.112;2022-11-20T04:43:39;29.73;;;13.03;;
21095;SDS011;10706;49.036;12.112;2022-11-20T04:46:05;36.83;;;14.50;;
21095;SDS011;10706;49.036;12.112;2022-11-20T04:48:31;33.97;;;13.90;;
21095;SDS011;10706;49.036;12.112;2022-11-20T04:50:57;34.87;;;13.40;;
21095;SDS011;10706;49.036;12.112;2022-11-20T04:53:23;41.57;;;15.73;;
21095;SDS011;10706;49.036;12.112;2022-11-20T04:55:49;36.73;;;15.20;;
21095;SDS011;10706;49.036;12.112;2022-11-20T04:58:15;33.63;;;14.30;;
21095;SDS011;10706;49.036;12.112;2022-11-20T05:00:41;34.17;;;13.77;;
21095;SDS011;10706;49.036;12.112;2022-11-20T05:03:07;37.93;;;14.80;;
21095;SDS011;10706;49.036;12.112;2022-11-20T05:05:35;38.43;;;14.50;;
21095;SDS011;10706;49.036;12.112;2022-11-20T05:08:01;36.77;;;15.83;;
21095;SDS011;10706;49.036;12.112;2022-11-20T05:10:27;37.40;;;15.60;;
21095;SDS011;10706;49.036;12.112;2022-11-20T05:12:53;37.47;;;14.07;;
21095;SDS011;10706;49.036;12.112;2022-11-20T05:15:19;42.33;;;15.03;;
21095;SDS011;10706;49.036;12.112;2022-11-20T05:17:48;39.50;;;15.33;;
21095;SDS011;10706;49.036;12.112;2022-11-20T05:20:15;36.10;;;15.30;;
21095;SDS011;10706;49.036;12.112;2022-11-20T05:22:42;42.47;;;15.20;;
21095;SDS011;10706;49.036;12.112;2022-11-20T05:25:09;40.83;;;15.63;;
21095;SDS011;10706;49.036;12.112;2022-11-20T05:27:35;40.17;;;15.67;;
21095;SDS011;10706;49.036;12.112;2022-11-20T05:30:01;36.10;;;15.17;;
21095;SDS011;10706;49.036;12.112;2022-11-20T05:32:28;38.40;;;16.07;;
21095;SDS011;10706;49.036;12.112;2022-11-20T05:34:54;36.13;;;14.77;;
21095;SDS011;10706;49.036;12.112;2022-11-20T05:37:20;36.73;;;15.13;;
21095;SDS011;10706;49.036;12.112;2022-11-20T05:39:45;39.43;;;15.43;;
21095;SDS011;10706;49.036;12.112;2022-11-20T05:42:11;34.67;;;14.83;;
21095;SDS011;10706;49.036;12.112;2022-11-20T05:44:55;37.03;;;16.00;;
21095;SDS011;10706;49.036;12.112;2022-11-20T05:47:31;40.93;;;16.03;;
21095;SDS011;10706;49.036;12.112;2022-11-20T05:49:58;40.13;;;16.73;;
21095;SDS011;10706;49.036;12.112;2022-11-20T05:52:24;37.97;;;15.57;;
21095;SDS011;10706;49.036;12.112;2022-11-20T05:54:53;40.93;;;16.13;;
21095;SDS011;10706;49.036;12.112;2022-11-20T05:57:19;37.37;;;14.97;;
21095;SDS011;10706;49.036;12.112;2022-11-20T05:59:45;44.27;;;17.33;;
21095;SDS011;10706;49.036;12.112;2022-11-20T06:02:10;44.47;;;16.57;;
21095;SDS011;10706;49.036;12.112;2022-11-20T06:04:36;41.80;;;15.67;;
21095;SDS011;10706;49.036;12.112;2022-11-20T06:07:02;38.50;;;16.47;;
21095;SDS011;10706;49.036;12.112;2022-11-20T06:09:30;36.13;;;16.00;;
21095;SDS011;10706;49.036;12.112;2022-11-20T06:11:55;42.93;;;16.80;;
21095;SDS011;10706;49.036;12.112;2022-11-20T06:14:21;40.40;;;15.40;;
21095;SDS011;10706;49.036;12.112;2022-11-20T06:16:47;37.83;;;14.97;;
21095;SDS011;10706;49.036;12.112;2022-11-20T06:19:13;41.30;;;15.83;;
21095;SDS011;10706;49.036;12.112;2022-11-20T06:21:39;43.47;;;17.37;;
21095;SDS011;10706;49.036;12.112;2022-11-20T06:24:05;43.23;;;15.57;;
21095;SDS011;10706;49.036;12.112;2022-11-20T06:26:33;39.47;;;15.73;;
21095;SDS011;10706;49.036;12.112;2022-11-20T06:28:59;35.73;;;14.70;;
21095;SDS011;10706;49.036;12.112;2022-11-20T06:31:25;40.77;;;16.00;;
21095;SDS011;10706;49.036;12.112;2022-11-20T06:33:51;45.80;;;17.03;;
21095;SDS011;10706;49.036;12.112;2022-11-20T06:36:19;50.00;;;18.40;;
21095;SDS011;10706;49.036;12.112;2022-11-20T06:38:46;39.63;;;15.97;;
21095;SDS011;10706;49.036;12.112;2022-11-20T06:41:13;36.67;;;15.63;;
21095;SDS011;10706;49.036;12.112;2022-11-20T06:43:41;44.60;;;17.20;;
21095;SDS011;10706;49.036;12.112;2022-11-20T06:46:09;40.93;;;15.17;;
21095;SDS011;10706;49.036;12.112;2022-11-20T06:48:36;41.53;;;17.17;;
21095;SDS011;10706;49.036;12.112;2022-11-20T06:51:02;40.23;;;15.10;;
21095;SDS011;10706;49.036;12.112;2022-11-20T06:53:30;41.20;;;16.07;;
21095;SDS011;10706;49.036;12.112;2022-11-20T06:55:56;43.60;;;15.83;;
21095;SDS011;10706;49.036;12.112;2022-11-20T06:58:23;38.80;;;15.30;;
21095;SDS011;10706;49.036;12.112;2022-11-20T07:00:51;42.47;;;15.77;;
21095;SDS011;10706;49.036;12.112;2022-11-20T07:03:17;43.13;;;16.37;;
21095;SDS011;10706;49.036;12.112;2022-11-20T07:05:44;46.07;;;18.87;;
21095;SDS011;10706;49.036;12.112;2022-11-20T07:08:11;48.43;;;17.33;;
21095;SDS011;10706;49.036;12.112;2022-11-20T07:10:37;48.57;;;16.47;;
21095;SDS011;10706;49.036;12.112;2022-11-20T07:13:03;47.43;;;16.87;;
21095;SDS011;10706;49.036;12.112;2022-11-20T07:15:29;42.50;;;16.17;;
21095;SDS011;10706;49.036;12.112;2022-11-20T07:17:55;47.20;;;17.83;;
21095;SDS011;10706;49.036;12.112;2022-11-20T07:20:24;39.77;;;15.90;;
21095;SDS011;10706;49.036;12.112;2022-11-20T07:22:53;41.73;;;16.57;;
21095;SDS011;10706;49.036;12.112;2022-11-20T07:25:20;37.97;;;14.40;;
21095;SDS011;10706;49.036;12.112;2022-11-20T07:27:47;44.27;;;16.60;;
21095;SDS011;10706;49.036;12.112;2022-11-20T07:30:14;42.83;;;16.60;;
21095;SDS011;10706;49.036;12.112;2022-11-20T07:32:40;35.53;;;15.33;;
21095;SDS011;10706;49.036;12.112;2022-11-20T07:35:06;46.57;;;16.90;;
21095;SDS011;10706;49.036;12.112;2022-11-20T07:37:35;38.23;;;16.17;;
21095;SDS011;10706;49.036;12.112;2022-11-20T07:40:01;39.73;;;17.27;;
21095;SDS011;10706;49.036;12.112;2022-11-20T07:42:28;40.43;;;14.43;;
21095;SDS011;10706;49.036;12.112;2022-11-20T07:44:54;37.03;;;14.47;;
21095;SDS011;10706;49.036;12.112;2022-11-20T07:47:19;45.40;;;16.20;;
21095;SDS011;10706;49.036;12.112;2022-11-20T07:49:45;42.90;;;15.93;;
21095;SDS011;10706;49.036;12.112;2022-11-20T07:52:11;35.43;;;14.37;;
21095;SDS011;10706;49.036;12.112;2022-11-20T07:54:37;42.20;;;15.90;;
21095;SDS011;10706;49.036;12.112;2022-11-20T07:57:03;36.20;;;14.80;;
21095;SDS011;10706;49.036;12.112;2022-11-20T07:59:28;37.67;;;15.93;;
21095;SDS011;10706;49.036;12.112;2022-11-20T08:01:54;40.63;;;14.40;;
21095;SDS011;10706;49.036;12.112;2022-11-20T08:04:20;38.90;;;14.77;;
21095;SDS011;10706;49.036;12.112;2022-11-20T08:06:46;40.13;;;15.60;;
21095;SDS011;10706;49.036;12.112;2022-11-20T08:09:12;38.43;;;15.80;;
21095;SDS011;10706;49.036;12.112;2022-11-20T08:11:37;34.67;;;14.43;;
21095;SDS011;10706;49.036;12.112;2022-11-20T08:14:22;34.20;;;14.30;;
21095;SDS011;10706;49.036;12.112;2022-11-20T08:16:48;36.10;;;13.23;;
21095;SDS011;10706;49.036;12.112;2022-11-20T08:19:14;33.13;;;14.23;;
21095;SDS011;10706;49.036;12.112;2022-11-20T08:21:43;36.40;;;15.40;;
21095;SDS011;10706;49.036;12.112;2022-11-20T08:24:09;33.90;;;13.63;;
21095;SDS011;10706;49.036;12.112;2022-11-20T08:26:36;37.33;;;13.37;;
21095;SDS011;10706;49.036;12.112;2022-11-20T08:29:04;34.67;;;13.93;;
21095;SDS011;10706;49.036;12.112;2022-11-20T08:31:30;34.93;;;13.90;;
21095;SDS011;10706;49.036;12.112;2022-11-20T08:33:56;34.83;;;14.47;;
21095;SDS011;10706;49.036;12.112;2022-11-20T08:36:23;30.63;;;13.40;;
21095;SDS011;10706;49.036;12.112;2022-11-20T08:38:53;33.27;;;13.73;;
21095;SDS011;10706;49.036;12.112;2022-11-20T08:41:20;29.63;;;13.10;;
21095;SDS011;10706;49.036;12.112;2022-11-20T08:43:50;31.70;;;13.43;;
21095;SDS011;10706;49.036;12.112;2022-11-20T08:46:19;31.40;;;12.93;;
21095;SDS011;10706;49.036;12.112;2022-11-20T08:48:45;31.07;;;13.27;;
21095;SDS011;10706;49.036;12.112;2022-11-20T08:51:11;31.87;;;13.80;;
21095;SDS011;10706;49.036;12.112;2022-11-20T08:53:38;29.57;;;13.83;;
21095;SDS011;10706;49.036;12.112;2022-11-20T08:56:05;29.40;;;14.13;;
21095;SDS011;10706;49.036;12.112;2022-11-20T08:58:31;32.27;;;13.13;;
21095;SDS011;10706;49.036;12.112;2022-11-20T09:00:57;28.87;;;13.50;;
21095;SDS011;10706;49.036;12.112;2022-11-20T09:03:23;32.10;;;13.17;;
21095;SDS011;10706;49.036;12.112;2022-11-20T09:05:55;30.10;;;12.17;;
21095;SDS011;10706;49.036;12.112;2022-11-20T09:08:24;29.77;;;13.17;;
21095;SDS011;10706;49.036;12.112;2022-11-20T09:10:53;27.70;;;12.53;;
21095;SDS011;10706;49.036;12.112;2022-11-20T09:13:20;26.23;;;11.13;;
21095;SDS011;10706;49.036;12.112;2022-11-20T09:15:51;26.87;;;11.83;;
21095;SDS011;10706;49.036;12.112;2022-11-20T09:18:27;31.20;;;12.13;;
21095;SDS011;10706;49.036;12.112;2022-11-20T09:20:58;27.37;;;11.70;;
21095;SDS011;10706;49.036;12.112;2022-11-20T09:23:26;26.40;;;11.70;;
21095;SDS011;10706;49.036;12.112;2022-11-20T09:25:55;28.10;;;12.03;;
21095;SDS011;10706;49.036;12.112;2022-11-20T09:28:24;28.03;;;11.80;;
21095;SDS011;10706;49.036;12.112;2022-11-20T09:30:51;28.53;;;12.83;;
21095;SDS011;10706;49.036;12.112;2022-11-20T09:33:17;27.47;;;11.37;;
21095;SDS011;10706;49.036;12.112;2022-11-20T09:35:43;30.40;;;12.50;;
21095;SDS011;10706;49.036;12.112;2022-11-20T09:38:09;27.80;;;12.67;;
21095;SDS011;10706;49.036;12.112;2022-11-20T09:40:45;24.90;;;10.90;;
21095;SDS011;10706;49.036;12.112;2022-11-20T09:44:10;26.37;;;12.03;;
21095;SDS011;10706;49.036;12.112;2022-11-20T09:49:23;22.37;;;10.90;;
21095;SDS011;10706;49.036;12.112;2022-11-20T09:52:14;23.00;;;10.70;;
21095;SDS011;10706;49.036;12.112;2022-11-20T09:54:53;23.03;;;10.87;;
21095;SDS011;10706;49.036;12.112;2022-11-20T09:57:25;28.67;;;10.80;;
21095;SDS011;10706;49.036;12.112;2022-11-20T10:00:05;22.30;;;7.93;;
21095;SDS011;10706;49.036;12.112;2022-11-20T10:05:33;15.53;;;6.00;;
21095;SDS011;10706;49.036;12.112;2022-11-20T10:10:42;20.20;;;8.53;;
21095;SDS011;10706;49.036;12.112;2022-11-20T10:16:08;13.17;;;5.60;;
21095;SDS011;10706;49.036;12.112;2022-11-20T10:18:42;13.73;;;6.00;;
21095;SDS011;10706;49.036;12.112;2022-11-20T10:24:34;16.53;;;6.17;;
21095;SDS011;10706;49.036;12.112;2022-11-20T10:27:41;13.90;;;6.00;;
21095;SDS011;10706;49.036;12.112;2022-11-20T10:30:38;13.87;;;5.67;;
21095;SDS011;10706;49.036;12.112;2022-11-20T10:41:26;14.73;;;5.90;;
21095;SDS011;10706;49.036;12.112;2022-11-20T10:44:17;14.93;;;6.20;;
21095;SDS011;10706;49.036;12.112;2022-11-20T10:47:17;12.53;;;5.67;;
21095;SDS011;10706;49.036;12.112;2022-11-20T10:49:53;13.80;;;5.83;;
21095;SDS011;10706;49.036;12.112;2022-11-20T11:00:39;15.53;;;5.83;;
21095;SDS011;10706;49.036;12.112;2022-11-20T11:03:13;13.00;;;5.97;;
21095;SDS011;10706;49.036;12.112;2022-11-20T11:05:58;11.50;;;5.13;;
21095;SDS011;10706;49.036;12.112;2022-11-20T11:08:53;13.67;;;5.63;;
21095;SDS011;10706;49.036;12.112;2022-11-20T11:11:28;14.23;;;5.10;;
21095;SDS011;10706;49.036;12.112;2022-11-20T11:14:05;13.37;;;5.17;;
21095;SDS011;10706;49.036;12.112;2022-11-20T11:16:40;12.77;;;5.30;;
21095;SDS011;10706;49.036;12.112;2022-11-20T11:19:21;16.57;;;5.33;;
21095;SDS011;10706;49.036;12.112;2022-11-20T11:21:52;9.50;;;4.70;;
21095;SDS011;10706;49.036;12.112;2022-11-20T11:24:25;13.03;;;4.73;;
21095;SDS011;10706;49.036;12.112;2022-11-20T11:26:58;13.30;;;5.20;;
21095;SDS011;10706;49.036;12.112;2022-11-20T11:29:36;14.23;;;5.57;;
21095;SDS011;10706;49.036;12.112;2022-11-20T11:32:08;15.83;;;5.00;;
21095;SDS011;10706;49.036;12.112;2022-11-20T11:34:39;13.23;;;4.87;;
21095;SDS011;10706;49.036;12.112;2022-11-20T11:37:05;13.53;;;5.20;;
21095;SDS011;10706;49.036;12.112;2022-11-20T11:39:42;10.97;;;4.70;;
21095;SDS011;10706;49.036;12.112;2022-11-20T11:42:16;10.27;;;4.50;;
21095;SDS011;10706;49.036;12.112;2022-11-20T11:44:44;12.73;;;5.03;;
21095;SDS011;10706;49.036;12.112;2022-11-20T11:52:36;11.17;;;4.80;;
21095;SDS011;10706;49.036;12.112;2022-11-20T11:58:27;16.03;;;4.57;;
21095;SDS011;10706;49.036;12.112;2022-11-20T12:01:10;9.33;;;4.40;;
21095;SDS011;10706;49.036;12.112;2022-11-20T12:07:22;7.40;;;3.93;;
21095;SDS011;10706;49.036;12.112;2022-11-20T12:13:02;9.73;;;4.03;;
21095;SDS011;10706;49.036;12.112;2022-11-20T12:15:57;8.03;;;3.70;;
21095;SDS011;10706;49.036;12.112;2022-11-20T12:18:24;10.40;;;4.00;;
21095;SDS011;10706;49.036;12.112;2022-11-20T12:23:51;10.40;;;4.53;;
21095;SDS011;10706;49.036;12.112;2022-11-20T12:32:10;8.27;;;3.63;;
21095;SDS011;10706;49.036;12.112;2022-11-20T12:38:01;9.60;;;3.50;;
21095;SDS011;10706;49.036;12.112;2022-11-20T12:41:46;8.07;;;3.47;;
21095;SDS011;10706;49.036;12.112;2022-11-20T12:45:19;9.63;;;3.40;;
21095;SDS011;10706;49.036;12.112;2022-11-20T12:56:54;7.93;;;3.73;;
21095;SDS011;10706;49.036;12.112;2022-11-20T13:02:46;8.43;;;3.60;;
21095;SDS011;10706;49.036;12.112;2022-11-20T13:05:37;8.67;;;3.77;;
21095;SDS011;10706;49.036;12.112;2022-11-20T13:08:10;7.47;;;3.23;;
21095;SDS011;10706;49.036;12.112;2022-11-20T13:13:43;9.17;;;3.60;;
21095;SDS011;10706;49.036;12.112;2022-11-20T13:16:30;8.57;;;3.43;;
21095;SDS011;10706;49.036;12.112;2022-11-20T13:19:04;7.80;;;3.40;;
21095;SDS011;10706;49.036;12.112;2022-11-20T13:21:37;7.70;;;3.33;;
21095;SDS011;10706;49.036;12.112;2022-11-20T13:26:32;8.50;;;3.90;;
21095;SDS011;10706;49.036;12.112;2022-11-20T13:29:04;7.37;;;3.60;;
21095;SDS011;10706;49.036;12.112;2022-11-20T13:31:37;8.10;;;3.33;;
21095;SDS011;10706;49.036;12.112;2022-11-20T13:34:09;7.30;;;3.03;;
21095;SDS011;10706;49.036;12.112;2022-11-20T13:36:52;7.77;;;3.50;;
21095;SDS011;10706;49.036;12.112;2022-11-20T13:39:24;5.73;;;3.20;;
21095;SDS011;10706;49.036;12.112;2022-11-20T13:41:57;6.83;;;2.93;;
21095;SDS011;10706;49.036;12.112;2022-11-20T13:44:47;10.83;;;3.20;;
21095;SDS011;10706;49.036;12.112;2022-11-20T13:47:27;8.03;;;3.30;;
21095;SDS011;10706;49.036;12.112;2022-11-20T13:49:57;6.53;;;2.93;;
21095;SDS011;10706;49.036;12.112;2022-11-20T13:52:43;7.07;;;3.20;;
21095;SDS011;10706;49.036;12.112;2022-11-20T13:55:59;5.83;;;2.70;;
21095;SDS011;10706;49.036;12.112;2022-11-20T14:01:24;8.53;;;3.17;;
21095;SDS011;10706;49.036;12.112;2022-11-20T14:03:56;7.97;;;3.10;;
21095;SDS011;10706;49.036;12.112;2022-11-20T14:06:26;7.80;;;3.20;;
21095;SDS011;10706;49.036;12.112;2022-11-20T14:08:53;7.67;;;3.33;;
21095;SDS011;10706;49.036;12.112;2022-11-20T14:11:22;8.67;;;3.37;;
21095;SDS011;10706;49.036;12.112;2022-11-20T14:13:58;6.63;;;2.90;;
21095;SDS011;10706;49.036;12.112;2022-11-20T14:16:26;8.97;;;3.43;;
21095;SDS011;10706;49.036;12.112;2022-11-20T14:18:55;8.80;;;3.47;;
21095;SDS011;10706;49.036;12.112;2022-11-20T14:21:26;9.33;;;3.97;;
21095;SDS011;10706;49.036;12.112;2022-11-20T14:26:30;10.07;;;3.60;;
21095;SDS011;10706;49.036;12.112;2022-11-20T14:28:57;10.20;;;3.80;;
21095;SDS011;10706;49.036;12.112;2022-11-20T14:31:24;7.93;;;3.30;;
21095;SDS011;10706;49.036;12.112;2022-11-20T14:33:52;5.00;;;2.43;;
21095;SDS011;10706;49.036;12.112;2022-11-20T14:36:21;6.03;;;2.40;;
21095;SDS011;10706;49.036;12.112;2022-11-20T14:38:50;7.50;;;2.57;;
21095;SDS011;10706;49.036;12.112;2022-11-20T14:41:18;5.33;;;2.73;;
21095;SDS011;10706;49.036;12.112;2022-11-20T14:43:51;5.50;;;2.30;;
21095;SDS011;10706;49.036;12.112;2022-11-20T14:46:23;3.50;;;2.40;;
21095;SDS011;10706;49.036;12.112;2022-11-20T14:48:51;5.87;;;2.67;;
21095;SDS011;10706;49.036;12.112;2022-11-20T14:51:26;6.63;;;3.23;;
21095;SDS011;10706;49.036;12.112;2022-11-20T14:54:07;7.53;;;3.53;;
21095;SDS011;10706;49.036;12.112;2022-11-20T14:56:42;6.00;;;2.83;;
21095;SDS011;10706;49.036;12.112;2022-11-20T14:59:27;7.67;;;3.20;;
21095;SDS011;10706;49.036;12.112;2022-11-20T15:02:31;9.43;;;4.20;;
21095;SDS011;10706;49.036;12.112;2022-11-20T15:04:59;7.57;;;3.87;;
21095;SDS011;10706;49.036;12.112;2022-11-20T15:07:38;8.03;;;3.77;;
21095;SDS011;10706;49.036;12.112;2022-11-20T15:10:11;8.13;;;3.83;;
21095;SDS011;10706;49.036;12.112;2022-11-20T15:12:50;8.77;;;4.10;;
21095;SDS011;10706;49.036;12.112;2022-11-20T15:15:27;10.33;;;4.03;;
21095;SDS011;10706;49.036;12.112;2022-11-20T15:18:01;10.93;;;4.30;;
21095;SDS011;10706;49.036;12.112;2022-11-20T15:20:29;13.30;;;4.53;;
21095;SDS011;10706;49.036;12.112;2022-11-20T15:22:57;8.90;;;4.30;;
21095;SDS011;10706;49.036;12.112;2022-11-20T15:25:24;9.43;;;3.97;;
21095;SDS011;10706;49.036;12.112;2022-11-20T15:27:51;8.70;;;4.20;;
21095;SDS011;10706;49.036;12.112;2022-11-20T15:30:22;10.10;;;4.70;;
21095;SDS011;10706;49.036;12.112;2022-11-20T15:32:48;11.90;;;5.20;;
21095;SDS011;10706;49.036;12.112;2022-11-20T15:35:14;15.30;;;6.63;;
21095;SDS011;10706;49.036;12.112;2022-11-20T15:37:41;16.77;;;8.03;;
21095;SDS011;10706;49.036;12.112;2022-11-20T15:40:07;14.20;;;6.10;;
21095;SDS011;10706;49.036;12.112;2022-11-20T15:42:34;12.47;;;4.80;;
21095;SDS011;10706;49.036;12.112;2022-11-20T15:45:00;11.57;;;4.43;;
21095;SDS011;10706;49.036;12.112;2022-11-20T15:47:30;10.27;;;3.77;;
21095;SDS011;10706;49.036;12.112;2022-11-20T15:50:00;10.93;;;3.60;;
21095;SDS011;10706;49.036;12.112;2022-11-20T15:52:26;7.30;;;3.17;;
21095;SDS011;10706;49.036;12.112;2022-11-20T15:54:51;9.83;;;3.97;;
21095;SDS011;10706;49.036;12.112;2022-11-20T15:57:17;9.30;;;2.87;;
21095;SDS011;10706;49.036;12.112;2022-11-20T15:59:44;6.23;;;2.90;;
21095;SDS011;10706;49.036;12.112;2022-11-20T16:02:13;5.90;;;2.87;;
21095;SDS011;10706;49.036;12.112;2022-11-20T16:04:40;6.10;;;2.60;;
21095;SDS011;10706;49.036;12.112;2022-11-20T16:07:07;5.60;;;2.87;;
21095;SDS011;10706;49.036;12.112;2022-11-20T16:09:33;6.17;;;3.03;;